Time;durP1;ratioP1;P1;durP2;ratioP2;P2;SDS_P1;SDS_P2;PMS_P1;PMS_P2;Temp;Humidity;BMP_temperature;BMP_pressure;BME280_temperature;BME280_humidity;BME280_pressure;Samples;Min_cycle;Max_cycle;Signal;HPM_P1;HPM_P2
2022/10/10 00:00:05;;;;;;;22.08;12.40;;;4.40;99.90;;;;;;5052681;28;20128;-68
2022/10/10 00:02:31;;;;;;;24.50;12.35;;;4.40;99.90;;;;;;5052746;28;20021;-69
2022/10/10 00:04:56;;;;;;;18.83;11.32;;;4.40;99.90;;;;;;5052743;28;20029;-68
2022/10/10 00:07:22;;;;;;;23.83;11.70;;;4.40;99.90;;;;;;5052897;28;20021;-76
2022/10/10 00:09:47;;;;;;;24.70;12.80;;;4.50;99.90;;;;;;5052827;28;20104;-76
2022/10/10 00:12:13;;;;;;;22.30;13.07;;;4.50;99.90;;;;;;5052816;28;20036;-69
2022/10/10 00:14:39;;;;;;;24.55;11.80;;;4.50;99.90;;;;;;5052735;28;20453;-68
2022/10/10 00:17:05;;;;;;;21.38;12.30;;;4.50;99.90;;;;;;5051600;28;20112;-68
2022/10/10 00:19:30;;;;;;;18.92;11.75;;;4.60;99.90;;;;;;5052677;28;20029;-70
2022/10/10 00:21:56;;;;;;;25.27;11.98;;;4.60;99.90;;;;;;5055287;28;20021;-70
2022/10/10 00:24:21;;;;;;;19.45;11.75;;;4.60;99.90;;;;;;5072295;28;20058;-68
2022/10/10 00:26:47;;;;;;;20.52;12.18;;;4.70;99.90;;;;;;5071635;28;20494;-75
2022/10/10 00:29:12;;;;;;;22.23;14.02;;;4.70;99.90;;;;;;5072511;28;20032;-76
2022/10/10 00:31:38;;;;;;;24.65;12.88;;;4.70;99.90;;;;;;5072303;28;20047;-69
2022/10/10 00:34:04;;;;;;;19.08;11.75;;;4.80;99.90;;;;;;5075304;28;20028;-68
2022/10/10 00:36:30;;;;;;;24.02;12.75;;;4.80;99.90;;;;;;5075989;28;20025;-75
2022/10/10 00:38:56;;;;;;;26.95;14.52;;;4.80;99.90;;;;;;5076266;28;20531;-68
2022/10/10 00:41:22;;;;;;;24.30;12.98;;;4.80;99.90;;;;;;5076081;28;20074;-74
2022/10/10 00:44:09;;;;;;;22.45;13.13;;;4.90;99.90;;;;;;5076044;28;20039;-76
2022/10/10 00:46:35;;;;;;;22.80;14.43;;;4.90;99.90;;;;;;5064470;28;20489;-68
2022/10/10 00:49:02;;;;;;;25.75;14.82;;;4.80;99.90;;;;;;5055919;28;20025;-68
2022/10/10 00:51:28;;;;;;;25.27;14.15;;;4.90;99.90;;;;;;5056016;28;20100;-68
2022/10/10 00:54:01;;;;;;;25.67;12.98;;;4.80;99.90;;;;;;5055883;28;20056;-76
2022/10/10 00:56:30;;;;;;;22.27;12.65;;;4.80;99.90;;;;;;5056083;28;20032;-76
2022/10/10 00:59:01;;;;;;;24.65;12.88;;;4.70;99.90;;;;;;5055854;28;20021;-75
2022/10/10 01:01:27;;;;;;;23.08;14.25;;;4.70;99.90;;;;;;5055493;28;20049;-68
2022/10/10 01:03:57;;;;;;;23.15;13.18;;;4.70;99.90;;;;;;5054478;28;20033;-76
2022/10/10 01:06:23;;;;;;;22.08;12.90;;;4.70;99.90;;;;;;5070961;28;20040;-68
2022/10/10 01:08:49;;;;;;;27.00;13.32;;;4.60;99.90;;;;;;5074374;28;20119;-68
2022/10/10 01:11:33;;;;;;;25.10;12.02;;;4.60;99.90;;;;;;5075460;28;20020;-76
2022/10/10 01:14:35;;;;;;;22.83;12.93;;;4.60;99.90;;;;;;5074565;28;20123;-69
2022/10/10 01:17:25;;;;;;;21.23;12.57;;;4.60;99.90;;;;;;5075612;28;20592;-75
2022/10/10 01:20:36;;;;;;;22.58;12.32;;;4.60;99.90;;;;;;5075338;28;20275;-75
2022/10/10 01:23:40;;;;;;;21.73;11.73;;;4.50;99.90;;;;;;5063398;28;20121;-75
2022/10/10 01:26:30;;;;;;;18.77;11.27;;;4.50;99.90;;;;;;5033397;28;20126;-68
2022/10/10 01:29:19;;;;;;;24.48;13.02;;;4.50;99.90;;;;;;5016622;28;20483;-68
2022/10/10 01:31:49;;;;;;;20.25;11.63;;;4.50;99.90;;;;;;5049727;28;20399;-76
2022/10/10 01:34:22;;;;;;;21.65;13.55;;;4.50;99.90;;;;;;5053836;28;20111;-68
2022/10/10 01:36:47;;;;;;;23.85;14.15;;;4.50;99.90;;;;;;5055161;28;20104;-68
2022/10/10 01:39:30;;;;;;;24.23;13.68;;;4.50;99.90;;;;;;5054679;28;20120;-68
2022/10/10 01:42:02;;;;;;;23.52;12.95;;;4.40;99.90;;;;;;5055081;28;20029;-68
2022/10/10 01:44:27;;;;;;;21.13;12.67;;;4.40;99.90;;;;;;5054253;28;20033;-69
2022/10/10 01:46:53;;;;;;;24.08;12.85;;;4.40;99.90;;;;;;5053553;28;20032;-68
2022/10/10 01:49:23;;;;;;;21.67;11.90;;;4.30;99.90;;;;;;5054798;28;20029;-75
2022/10/10 01:52:19;;;;;;;19.08;13.45;;;4.30;99.90;;;;;;5071473;28;20021;-68
2022/10/10 01:55:18;;;;;;;21.38;12.45;;;4.30;99.90;;;;;;5073641;28;20432;-75
2022/10/10 01:58:27;;;;;;;20.40;12.10;;;4.30;99.90;;;;;;5073478;28;20036;-76
2022/10/10 02:01:21;;;;;;;23.48;14.15;;;4.30;99.90;;;;;;5074299;28;20067;-68
2022/10/10 02:04:08;;;;;;;30.25;14.15;;;4.30;99.90;;;;;;5074515;28;20036;-75
2022/10/10 02:06:45;;;;;;;22.67;12.65;;;4.30;99.90;;;;;;5074410;28;20085;-75
2022/10/10 02:09:18;;;;;;;20.17;11.88;;;4.30;99.90;;;;;;5074703;28;20036;-69
2022/10/10 02:11:44;;;;;;;21.60;12.52;;;4.30;99.90;;;;;;5074199;28;20020;-76
2022/10/10 02:14:33;;;;;;;23.13;11.82;;;4.30;99.90;;;;;;5074473;28;20077;-76
2022/10/10 02:17:01;;;;;;;28.42;13.55;;;4.30;99.90;;;;;;5074069;28;20031;-76
2022/10/10 02:19:28;;;;;;;22.98;12.25;;;4.30;99.90;;;;;;5074373;28;20024;-76
2022/10/10 02:21:55;;;;;;;27.92;12.48;;;4.40;99.90;;;;;;5070906;28;20440;-68
2022/10/10 02:24:23;;;;;;;18.98;11.75;;;4.40;99.90;;;;;;5054125;28;20060;-68
2022/10/10 02:26:57;;;;;;;27.92;13.25;;;4.40;99.90;;;;;;5054072;28;20100;-68
2022/10/10 02:29:28;;;;;;;19.45;11.02;;;4.40;99.90;;;;;;5054167;28;20056;-68
2022/10/10 02:32:23;;;;;;;21.98;12.85;;;4.50;99.90;;;;;;5054053;28;20025;-75
2022/10/10 02:34:52;;;;;;;21.27;11.25;;;4.50;99.90;;;;;;5054052;28;20025;-75
2022/10/10 02:37:19;;;;;;;20.77;10.48;;;4.50;99.90;;;;;;5053992;28;20017;-68
2022/10/10 02:39:52;;;;;;;20.80;11.55;;;4.50;99.90;;;;;;5054069;28;20028;-68
2022/10/10 02:42:22;;;;;;;19.00;11.85;;;4.50;99.90;;;;;;5052696;28;20107;-76
2022/10/10 02:44:49;;;;;;;30.42;12.40;;;4.50;99.90;;;;;;5053853;28;20044;-76
2022/10/10 02:47:14;;;;;;;20.98;10.80;;;4.50;99.90;;;;;;5053754;28;20021;-68
2022/10/10 02:49:40;;;;;;;22.38;11.90;;;4.50;99.90;;;;;;5054329;28;20498;-76
2022/10/10 02:52:06;;;;;;;21.58;11.35;;;4.50;99.90;;;;;;5073638;28;20082;-75
2022/10/10 02:54:32;;;;;;;21.92;11.15;;;4.50;99.90;;;;;;5072427;28;20470;-68
2022/10/10 02:56:58;;;;;;;23.98;11.68;;;4.50;99.90;;;;;;5072386;28;20032;-68
2022/10/10 02:59:23;;;;;;;16.50;9.75;;;4.50;99.90;;;;;;5073511;28;20041;-68
2022/10/10 03:01:49;;;;;;;20.83;10.77;;;4.50;99.90;;;;;;5073402;28;20048;-68
2022/10/10 03:04:15;;;;;;;18.85;10.57;;;4.50;99.90;;;;;;5073455;28;20397;-76
2022/10/10 03:06:41;;;;;;;19.80;10.52;;;4.50;99.90;;;;;;5073082;28;20078;-68
2022/10/10 03:09:06;;;;;;;16.95;10.27;;;4.60;99.90;;;;;;5073444;28;20099;-75
2022/10/10 03:11:32;;;;;;;15.00;9.70;;;4.60;99.90;;;;;;5073098;28;20036;-76
2022/10/10 03:13:57;;;;;;;22.05;11.25;;;4.60;99.90;;;;;;5072095;28;20098;-76
2022/10/10 03:16:23;;;;;;;19.25;10.05;;;4.70;99.90;;;;;;5073125;28;20024;-68
2022/10/10 03:18:49;;;;;;;16.40;9.88;;;4.70;99.90;;;;;;5073316;28;20024;-76
2022/10/10 03:21:14;;;;;;;13.82;8.43;;;4.70;99.90;;;;;;5072921;28;20036;-68
2022/10/10 03:23:40;;;;;;;15.38;9.23;;;4.80;99.90;;;;;;5055259;28;20113;-68
2022/10/10 03:26:06;;;;;;;18.13;9.07;;;4.90;99.90;;;;;;5053335;28;20052;-75
2022/10/10 03:28:32;;;;;;;20.02;9.65;;;4.80;99.90;;;;;;5051842;28;20028;-75
2022/10/10 03:30:58;;;;;;;16.17;9.23;;;4.80;99.90;;;;;;5053193;28;20029;-68
2022/10/10 03:33:23;;;;;;;15.25;9.52;;;4.90;99.90;;;;;;5051899;28;20433;-68
2022/10/10 03:35:49;;;;;;;19.15;9.30;;;4.90;99.90;;;;;;5053275;28;20036;-76
2022/10/10 03:38:15;;;;;;;15.02;7.82;;;4.80;99.90;;;;;;5051808;28;20029;-75
2022/10/10 03:40:42;;;;;;;16.02;9.45;;;4.80;99.90;;;;;;5053021;28;20036;-75
2022/10/10 03:43:12;;;;;;;14.68;9.00;;;4.80;99.90;;;;;;5052774;28;20040;-75
2022/10/10 03:45:40;;;;;;;17.73;8.45;;;4.80;99.90;;;;;;5051758;28;20036;-68
2022/10/10 03:48:05;;;;;;;17.85;8.25;;;4.80;99.90;;;;;;5053040;28;20017;-76
2022/10/10 03:50:31;;;;;;;12.63;8.40;;;4.80;99.90;;;;;;5057297;28;20028;-68
2022/10/10 03:52:56;;;;;;;15.43;8.32;;;4.80;99.90;;;;;;5071784;28;20064;-76
2022/10/10 03:55:22;;;;;;;17.50;9.68;;;4.80;99.90;;;;;;5071500;28;20023;-76
2022/10/10 03:57:48;;;;;;;14.93;9.30;;;4.70;99.90;;;;;;5071552;28;20024;-75
2022/10/10 04:00:13;;;;;;;14.65;8.98;;;4.80;99.90;;;;;;5071318;28;20098;-68
2022/10/10 04:02:39;;;;;;;16.38;10.23;;;4.80;99.90;;;;;;5072734;28;20063;-76
2022/10/10 04:05:05;;;;;;;18.05;9.02;;;4.80;99.90;;;;;;5071661;28;20071;-76
2022/10/10 04:07:31;;;;;;;14.02;7.97;;;4.70;99.90;;;;;;5033286;28;20053;-68
2022/10/10 04:09:57;;;;;;;15.13;7.70;;;4.70;99.90;;;;;;5035607;28;20500;-76
2022/10/10 04:12:22;;;;;;;17.50;8.25;;;4.70;99.90;;;;;;5055396;28;20025;-68
2022/10/10 04:14:48;;;;;;;14.80;8.80;;;4.70;99.90;;;;;;5056446;28;20025;-68
2022/10/10 04:17:14;;;;;;;14.02;7.63;;;4.80;99.90;;;;;;5073469;28;20478;-68
2022/10/10 04:19:39;;;;;;;13.35;8.25;;;4.80;99.90;;;;;;5076723;28;20028;-68
2022/10/10 04:22:05;;;;;;;14.95;8.48;;;4.80;99.90;;;;;;5071196;28;20017;-68
2022/10/10 04:24:30;;;;;;;11.80;7.32;;;4.80;99.90;;;;;;5055169;28;20044;-75
2022/10/10 04:26:56;;;;;;;14.35;7.53;;;4.80;99.90;;;;;;5056347;28;20478;-75
2022/10/10 04:29:22;;;;;;;9.25;6.95;;;4.80;99.90;;;;;;5041449;28;20418;-75
2022/10/10 04:31:47;;;;;;;14.52;7.85;;;4.80;99.90;;;;;;5049098;28;20025;-75
2022/10/10 04:34:14;;;;;;;13.82;7.70;;;4.90;99.90;;;;;;5056162;28;20021;-68
2022/10/10 04:36:40;;;;;;;11.55;7.97;;;4.90;99.90;;;;;;5054877;28;20021;-76
2022/10/10 04:39:05;;;;;;;10.27;7.35;;;4.90;99.90;;;;;;5056196;28;20025;-68
2022/10/10 04:41:31;;;;;;;12.30;7.32;;;4.90;99.90;;;;;;5054370;28;20497;-68
2022/10/10 04:43:56;;;;;;;9.82;6.85;;;4.90;99.90;;;;;;5050809;28;20413;-75
2022/10/10 04:46:22;;;;;;;15.93;7.20;;;5.00;99.90;;;;;;5064138;28;20009;-68
2022/10/10 04:48:47;;;;;;;9.93;6.60;;;4.90;99.90;;;;;;5075885;28;20060;-76
2022/10/10 04:51:13;;;;;;;10.32;6.93;;;4.90;99.90;;;;;;5059974;28;20032;-75
2022/10/10 04:53:39;;;;;;;11.77;7.50;;;4.90;99.90;;;;;;5043701;28;20093;-68
2022/10/10 04:56:04;;;;;;;12.88;5.43;;;4.90;99.90;;;;;;5041405;28;20017;-75
2022/10/10 04:58:30;;;;;;;10.70;6.53;;;5.00;99.90;;;;;;5050990;28;20026;-75
2022/10/10 05:00:56;;;;;;;9.43;5.70;;;5.00;99.90;;;;;;5054560;28;20056;-75
2022/10/10 05:03:22;;;;;;;10.50;6.35;;;5.00;99.90;;;;;;5053575;28;20045;-69
2022/10/10 05:05:48;;;;;;;7.65;6.05;;;5.10;99.90;;;;;;5054820;28;20025;-75
2022/10/10 05:08:14;;;;;;;11.27;6.32;;;5.10;99.90;;;;;;5054820;28;20025;-68
2022/10/10 05:10:40;;;;;;;8.48;5.68;;;5.10;99.90;;;;;;5054787;28;20475;-68
2022/10/10 05:13:11;;;;;;;7.05;5.45;;;5.20;99.90;;;;;;5053422;28;20518;-69
2022/10/10 05:15:37;;;;;;;9.68;5.50;;;5.20;99.90;;;;;;5045633;28;20033;-68
2022/10/10 05:18:03;;;;;;;8.10;6.13;;;5.30;99.90;;;;;;5065530;28;20413;-68
2022/10/10 05:20:30;;;;;;;9.82;5.00;;;5.40;99.90;;;;;;5043290;28;20029;-76
2022/10/10 05:22:55;;;;;;;9.10;5.43;;;5.50;99.90;;;;;;5066949;28;20489;-76
2022/10/10 05:25:21;;;;;;;10.20;6.18;;;5.50;99.90;;;;;;5071872;28;20103;-68
2022/10/10 05:27:47;;;;;;;8.25;5.82;;;5.60;99.90;;;;;;5072028;28;20029;-68
2022/10/10 05:30:13;;;;;;;10.27;6.00;;;5.60;99.90;;;;;;5073753;28;20032;-76
2022/10/10 05:32:38;;;;;;;6.95;5.45;;;5.60;99.90;;;;;;5067269;28;20022;-68
2022/10/10 05:35:04;;;;;;;9.95;6.10;;;5.60;99.90;;;;;;5050181;28;20029;-75
2022/10/10 05:37:31;;;;;;;10.95;6.20;;;5.60;99.90;;;;;;5073029;28;20047;-68
2022/10/10 05:39:57;;;;;;;10.70;6.20;;;5.60;99.90;;;;;;5073803;28;20028;-67
2022/10/10 05:42:23;;;;;;;8.98;5.45;;;5.70;99.90;;;;;;5072095;28;20045;-68
2022/10/10 05:44:48;;;;;;;9.70;5.40;;;5.70;99.90;;;;;;5074115;28;20043;-68
2022/10/10 05:47:14;;;;;;;9.55;5.55;;;5.70;99.90;;;;;;5068423;28;20413;-67
2022/10/10 05:49:40;;;;;;;9.52;5.50;;;5.80;99.90;;;;;;5074193;28;20495;-75
2022/10/10 05:52:05;;;;;;;8.70;5.90;;;5.80;99.90;;;;;;5072600;28;20595;-68
2022/10/10 05:54:31;;;;;;;10.63;6.70;;;5.80;99.90;;;;;;5073219;28;20032;-68
2022/10/10 05:56:57;;;;;;;10.30;5.72;;;5.90;99.90;;;;;;5073615;28;20159;-72
2022/10/10 05:59:22;;;;;;;10.30;5.68;;;5.90;99.90;;;;;;5073851;28;20035;-68
2022/10/10 06:01:48;;;;;;;8.63;5.57;;;6.00;99.90;;;;;;5072060;28;20063;-68
2022/10/10 06:04:13;;;;;;;11.05;6.22;;;6.10;99.90;;;;;;5072133;28;20076;-68
2022/10/10 06:06:40;;;;;;;8.57;5.97;;;6.20;99.90;;;;;;5073568;28;20044;-75
2022/10/10 06:09:05;;;;;;;8.32;6.45;;;6.20;99.90;;;;;;5074499;28;20082;-68
2022/10/10 06:11:31;;;;;;;9.60;5.90;;;6.40;99.90;;;;;;5074411;28;20470;-68
2022/10/10 06:13:57;;;;;;;10.32;6.00;;;6.40;99.90;;;;;;5074389;28;20031;-75
2022/10/10 06:16:24;;;;;;;9.88;5.30;;;6.50;99.90;;;;;;5072984;28;20531;-68
2022/10/10 06:18:50;;;;;;;7.40;5.47;;;6.60;99.90;;;;;;5074388;28;20039;-70
2022/10/10 06:21:17;;;;;;;7.13;4.85;;;6.80;99.90;;;;;;5072831;28;20029;-68
2022/10/10 06:23:43;;;;;;;7.25;4.70;;;6.90;99.90;;;;;;5054987;28;20112;-75
2022/10/10 06:26:09;;;;;;;7.82;4.85;;;7.00;99.90;;;;;;5052654;28;20044;-68
2022/10/10 06:28:34;;;;;;;7.93;5.15;;;7.00;99.90;;;;;;5054037;28;20061;-68
2022/10/10 06:31:03;;;;;;;6.45;4.57;;;7.10;99.90;;;;;;5052608;28;20115;-68
2022/10/10 06:33:29;;;;;;;8.38;5.15;;;7.20;99.90;;;;;;5073888;28;20020;-76
2022/10/10 06:35:55;;;;;;;8.18;4.45;;;7.40;99.90;;;;;;5073677;28;20089;-67
2022/10/10 06:38:21;;;;;;;7.60;4.35;;;7.40;99.90;;;;;;5073385;28;20416;-76
2022/10/10 06:40:46;;;;;;;8.10;4.65;;;7.50;99.90;;;;;;5073820;28;20107;-68
2022/10/10 06:43:13;;;;;;;6.90;4.80;;;7.60;99.90;;;;;;5073568;28;20055;-68
2022/10/10 06:45:41;;;;;;;5.97;3.75;;;7.70;99.90;;;;;;5066924;28;20500;-75
2022/10/10 06:48:07;;;;;;;6.32;4.43;;;7.80;99.90;;;;;;5052766;28;20021;-75
2022/10/10 06:50:33;;;;;;;4.68;4.20;;;7.90;99.90;;;;;;5052466;28;20040;-68
2022/10/10 06:52:59;;;;;;;7.28;4.95;;;8.00;99.90;;;;;;5053901;28;20410;-75
2022/10/10 06:55:25;;;;;;;9.48;3.97;;;8.10;99.90;;;;;;5052557;28;20029;-75
2022/10/10 06:57:50;;;;;;;4.55;3.85;;;8.20;99.90;;;;;;5052518;28;20558;-68
2022/10/10 07:00:16;;;;;;;3.63;3.33;;;8.20;99.90;;;;;;5053320;28;20111;-67
2022/10/10 07:02:42;;;;;;;4.80;4.05;;;8.40;99.90;;;;;;5053694;28;20040;-68
2022/10/10 07:05:12;;;;;;;7.22;3.72;;;8.40;99.90;;;;;;5053671;28;20029;-68
2022/10/10 07:07:39;;;;;;;3.95;3.22;;;8.50;99.90;;;;;;5053917;28;20108;-75
2022/10/10 07:10:05;;;;;;;6.13;4.20;;;8.60;99.90;;;;;;5052264;28;20028;-68
2022/10/10 07:12:31;;;;;;;5.63;3.40;;;8.70;99.90;;;;;;5053533;28;20108;-75
2022/10/10 07:14:57;;;;;;;4.13;3.05;;;8.80;99.90;;;;;;5053483;28;20108;-68
2022/10/10 07:17:22;;;;;;;4.13;3.10;;;8.90;99.90;;;;;;5053538;28;20052;-67
2022/10/10 07:19:48;;;;;;;6.30;4.68;;;9.00;99.90;;;;;;5053415;28;20475;-68
2022/10/10 07:22:14;;;;;;;4.65;3.50;;;9.20;99.90;;;;;;5060372;28;20016;-68
2022/10/10 07:24:39;;;;;;;5.22;3.30;;;9.30;99.90;;;;;;5073262;28;20470;-76
2022/10/10 07:27:05;;;;;;;7.65;2.70;;;9.40;99.30;;;;;;5073313;28;20048;-68
2022/10/10 07:29:31;;;;;;;6.05;3.30;;;9.40;97.40;;;;;;5073419;28;20059;-75
2022/10/10 07:31:57;;;;;;;4.28;2.95;;;9.50;97.90;;;;;;5072977;28;20417;-68
2022/10/10 07:34:23;;;;;;;8.30;3.50;;;9.50;96.60;;;;;;5073382;28;20214;-75
2022/10/10 07:36:49;;;;;;;4.28;2.90;;;9.60;97.50;;;;;;5073028;28;20086;-76
2022/10/10 07:39:25;;;;;;;5.50;3.28;;;9.70;97.40;;;;;;5070060;28;20021;-75
2022/10/10 07:41:51;;;;;;;3.67;3.15;;;9.80;96.00;;;;;;5053135;28;20148;-76
2022/10/10 07:44:17;;;;;;;3.33;3.03;;;9.80;96.40;;;;;;5055390;28;20190;-76
2022/10/10 07:46:44;;;;;;;4.00;3.08;;;9.90;96.50;;;;;;5058426;28;20413;-75
2022/10/10 07:49:11;;;;;;;2.67;2.47;;;9.90;93.50;;;;;;5077241;28;20024;-75
2022/10/10 07:51:37;;;;;;;2.75;2.47;;;9.80;92.10;;;;;;5075800;28;20032;-68
2022/10/10 07:54:04;;;;;;;7.43;3.05;;;9.90;92.30;;;;;;5077281;28;20028;-68
2022/10/10 07:56:30;;;;;;;4.47;2.92;;;10.00;92.60;;;;;;5077201;28;20016;-75
2022/10/10 07:58:55;;;;;;;3.42;3.13;;;10.10;91.40;;;;;;5076885;28;20035;-73
2022/10/10 08:01:21;;;;;;;3.88;2.83;;;10.20;91.20;;;;;;5076884;28;20048;-67
2022/10/10 08:03:47;;;;;;;3.38;2.45;;;10.20;89.60;;;;;;5076791;28;20490;-68
2022/10/10 08:06:15;;;;;;;6.28;3.17;;;10.30;89.30;;;;;;5077042;28;20025;-75
2022/10/10 08:08:42;;;;;;;3.85;2.85;;;10.50;89.90;;;;;;5076880;28;20112;-68
2022/10/10 08:11:08;;;;;;;3.10;2.80;;;10.60;88.40;;;;;;5075583;28;20023;-68
2022/10/10 08:13:35;;;;;;;4.38;2.60;;;10.70;86.30;;;;;;5076763;28;20149;-68
2022/10/10 08:16:02;;;;;;;2.40;2.20;;;10.80;86.70;;;;;;5075450;28;20107;-75
2022/10/10 08:18:28;;;;;;;3.83;2.60;;;10.90;86.50;;;;;;5074708;28;20363;-68
2022/10/10 08:21:02;;;;;;;3.22;2.92;;;11.10;84.80;;;;;;5076610;28;20036;-67
2022/10/10 08:23:27;;;;;;;2.90;2.63;;;11.20;85.40;;;;;;5057534;28;20036;-75
2022/10/10 08:25:53;;;;;;;3.00;2.40;;;11.30;85.90;;;;;;5056284;28;20581;-75
2022/10/10 08:28:19;;;;;;;5.65;2.53;;;11.40;83.50;;;;;;5056686;28;20048;-69
2022/10/10 08:30:44;;;;;;;3.80;2.97;;;11.40;84.00;;;;;;5056601;28;20074;-74
2022/10/10 08:33:10;;;;;;;5.72;2.80;;;11.40;83.70;;;;;;5056485;28;20029;-76
2022/10/10 08:35:39;;;;;;;3.45;2.60;;;11.50;82.20;;;;;;5056504;28;20096;-68
2022/10/10 08:38:04;;;;;;;3.60;2.28;;;11.60;81.90;;;;;;5056349;28;20486;-75
2022/10/10 08:40:31;;;;;;;4.05;3.00;;;11.50;79.90;;;;;;5056416;28;20031;-67
2022/10/10 08:43:02;;;;;;;7.00;3.42;;;11.60;81.40;;;;;;5056182;28;20104;-75
2022/10/10 08:45:28;;;;;;;6.88;3.20;;;11.70;81.10;;;;;;5056351;28;20021;-68
2022/10/10 08:48:01;;;;;;;6.88;3.10;;;11.80;80.20;;;;;;5063625;28;20489;-67
2022/10/10 08:50:32;;;;;;;3.22;2.53;;;11.70;78.70;;;;;;5076052;28;20028;-75
2022/10/10 08:53:19;;;;;;;5.93;3.00;;;11.70;80.30;;;;;;5075898;28;20029;-75
2022/10/10 08:55:45;;;;;;;6.03;3.05;;;11.80;79.90;;;;;;5076252;28;20024;-71
2022/10/10 08:58:26;;;;;;;4.40;3.35;;;11.70;78.90;;;;;;5075718;28;20035;-75
2022/10/10 09:01:14;;;;;;;4.80;2.90;;;11.80;79.60;;;;;;5076040;28;20454;-67
2022/10/10 09:03:49;;;;;;;4.65;3.00;;;11.80;77.90;;;;;;5075652;28;20044;-76
2022/10/10 09:06:18;;;;;;;4.05;2.72;;;11.80;79.10;;;;;;5074531;28;20137;-68
2022/10/10 09:08:55;;;;;;;5.53;3.22;;;11.90;79.40;;;;;;5075712;28;20036;-75
2022/10/10 09:11:36;;;;;;;4.78;3.45;;;12.00;77.90;;;;;;5075817;28;20150;-75
2022/10/10 09:14:36;;;;;;;4.93;2.80;;;11.90;75.70;;;;;;5075574;28;20028;-74
2022/10/10 09:17:22;;;;;;;4.50;2.83;;;12.00;74.90;;;;;;5075744;28;20039;-75
2022/10/10 09:19:58;;;;;;;3.25;2.88;;;12.20;76.70;;;;;;5075691;28;20032;-75
2022/10/10 09:22:29;;;;;;;6.05;3.45;;;12.30;73.80;;;;;;5066275;28;20021;-67
2022/10/10 09:25:05;;;;;;;5.10;2.85;;;12.40;74.60;;;;;;5055543;28;20129;-75
2022/10/10 09:27:36;;;;;;;5.57;3.60;;;12.50;74.10;;;;;;5054362;28;20021;-75
2022/10/10 09:30:05;;;;;;;3.78;3.03;;;12.50;75.70;;;;;;5054186;28;20151;-74
2022/10/10 09:32:40;;;;;;;9.75;4.18;;;12.70;76.10;;;;;;5055257;28;20028;-68
2022/10/10 09:35:20;;;;;;;4.25;3.58;;;12.80;76.60;;;;;;5055487;28;20084;-75
2022/10/10 09:37:50;;;;;;;4.13;2.80;;;12.90;76.50;;;;;;5055440;28;20013;-68
2022/10/10 09:40:26;;;;;;;3.17;2.83;;;13.00;75.00;;;;;;5055280;28;20025;-75
2022/10/10 09:42:52;;;;;;;4.72;3.30;;;13.10;75.70;;;;;;5053909;28;20017;-67
2022/10/10 09:45:19;;;;;;;13.00;4.38;;;13.20;74.00;;;;;;5055120;28;20032;-67
2022/10/10 09:47:49;;;;;;;8.30;3.70;;;13.20;72.10;;;;;;5053793;28;20478;-67
2022/10/10 09:50:15;;;;;;;4.68;3.38;;;13.20;73.50;;;;;;5055126;28;20021;-75
2022/10/10 09:52:43;;;;;;;5.38;3.10;;;13.30;73.80;;;;;;5055067;28;20021;-67
2022/10/10 09:55:29;;;;;;;6.72;3.28;;;13.30;74.10;;;;;;5054909;28;20425;-67
2022/10/10 09:58:14;;;;;;;4.45;2.97;;;13.40;73.70;;;;;;5054975;28;20048;-74
2022/10/10 10:00:39;;;;;;;6.40;3.13;;;13.40;74.20;;;;;;5054916;28;20045;-75
2022/10/10 10:03:15;;;;;;;4.25;3.20;;;13.50;73.70;;;;;;5054683;28;20041;-74
2022/10/10 10:05:45;;;;;;;4.63;3.45;;;13.70;75.70;;;;;;5054369;28;20029;-75
2022/10/10 10:08:29;;;;;;;4.75;3.05;;;13.70;74.40;;;;;;5054733;28;20028;-67
2022/10/10 10:10:58;;;;;;;5.47;3.10;;;13.80;73.60;;;;;;5054711;28;20029;-75
2022/10/10 10:13:33;;;;;;;3.25;2.83;;;13.90;75.40;;;;;;5054635;28;20482;-67
2022/10/10 10:16:08;;;;;;;5.57;3.03;;;14.00;75.00;;;;;;5054729;28;20120;-75
2022/10/10 10:18:45;;;;;;;4.45;3.08;;;14.00;72.80;;;;;;5053296;28;20021;-68
2022/10/10 10:21:20;;;;;;;6.68;2.88;;;14.00;72.30;;;;;;5054793;28;20100;-67
2022/10/10 10:23:48;;;;;;;4.03;3.28;;;14.20;72.20;;;;;;5042596;28;20437;-67
2022/10/10 10:26:42;;;;;;;4.53;3.10;;;14.20;73.20;;;;;;5054077;28;20079;-74
2022/10/10 10:29:28;;;;;;;3.80;2.80;;;14.20;70.30;;;;;;5050549;28;20045;-67
2022/10/10 10:32:16;;;;;;;6.20;3.33;;;14.20;71.00;;;;;;5048852;28;20060;-67
2022/10/10 10:34:42;;;;;;;4.70;3.33;;;14.30;70.50;;;;;;5059151;28;20035;-75
2022/10/10 10:37:26;;;;;;;3.10;2.47;;;14.30;70.20;;;;;;5065430;28;20557;-75
2022/10/10 10:40:08;;;;;;;5.30;3.92;;;14.40;69.30;;;;;;5066455;28;20016;-75
2022/10/10 10:42:43;;;;;;;4.38;3.00;;;14.50;70.00;;;;;;5072900;28;20045;-75
2022/10/10 10:45:38;;;;;;;4.20;2.78;;;14.50;68.80;;;;;;5071203;28;20063;-75
2022/10/10 10:48:14;;;;;;;4.25;3.13;;;14.50;68.50;;;;;;5066988;28;20407;-75
2022/10/10 10:51:15;;;;;;;3.67;3.38;;;14.60;70.00;;;;;;5072648;28;20031;-75
2022/10/10 10:54:13;;;;;;;5.32;3.15;;;14.60;68.40;;;;;;5063724;28;20121;-75
2022/10/10 10:57:01;;;;;;;3.03;2.72;;;14.60;68.50;;;;;;5072884;28;20029;-67
2022/10/10 10:59:30;;;;;;;3.97;2.90;;;14.70;70.20;;;;;;5059591;28;20094;-68
2022/10/10 11:02:37;;;;;;;3.80;2.40;;;14.80;70.30;;;;;;5071917;28;20045;-67
2022/10/10 11:05:35;;;;;;;3.25;2.95;;;14.90;69.70;;;;;;5053575;28;20095;-67
2022/10/10 11:08:06;;;;;;;2.75;2.55;;;15.00;69.40;;;;;;5063382;28;20041;-67
2022/10/10 11:10:55;;;;;;;4.75;2.70;;;14.90;67.80;;;;;;5072561;28;20493;-74
2022/10/10 11:13:36;;;;;;;5.80;2.85;;;15.00;67.40;;;;;;5064000;28;20110;-75
2022/10/10 11:16:23;;;;;;;3.85;2.72;;;15.00;66.40;;;;;;5058770;28;20044;-67
2022/10/10 11:19:11;;;;;;;3.15;2.85;;;15.00;67.30;;;;;;5065584;28;20048;-67
2022/10/10 11:21:44;;;;;;;4.20;2.50;;;15.00;67.40;;;;;;5039834;28;20048;-67
2022/10/10 11:24:32;;;;;;;4.20;2.22;;;15.00;65.50;;;;;;5061290;28;20518;-67
2022/10/10 11:27:04;;;;;;;6.30;2.90;;;15.00;64.90;;;;;;5066595;28;20033;-75
2022/10/10 11:29:37;;;;;;;5.78;2.72;;;14.90;64.90;;;;;;5068808;28;20397;-74
2022/10/10 11:32:12;;;;;;;3.97;3.05;;;15.00;66.60;;;;;;5043176;28;20025;-67
2022/10/10 11:34:42;;;;;;;5.20;3.17;;;15.00;65.90;;;;;;5071242;28;20028;-74
2022/10/10 11:37:15;;;;;;;4.07;2.80;;;15.00;64.50;;;;;;5062917;28;20390;-67
2022/10/10 11:39:53;;;;;;;4.30;2.53;;;15.00;64.60;;;;;;5070283;28;20036;-68
2022/10/10 11:42:44;;;;;;;4.97;3.25;;;15.10;67.00;;;;;;5071777;28;20466;-67
2022/10/10 11:45:20;;;;;;;5.00;3.03;;;15.10;66.90;;;;;;5069902;28;20037;-67
2022/10/10 11:48:11;;;;;;;2.70;2.40;;;15.20;66.80;;;;;;5060723;28;20500;-74
2022/10/10 11:50:41;;;;;;;3.65;2.30;;;15.10;65.10;;;;;;5071917;28;20025;-74
2022/10/10 11:53:24;;;;;;;6.55;2.53;;;15.00;63.40;;;;;;5063299;28;20029;-67
2022/10/10 11:55:57;;;;;;;3.85;3.08;;;15.00;63.70;;;;;;5049906;28;20024;-67
2022/10/10 11:58:44;;;;;;;3.38;2.80;;;15.00;64.90;;;;;;5071306;28;20061;-67
2022/10/10 12:01:28;;;;;;;4.07;2.90;;;15.00;64.40;;;;;;5064728;28;20114;-67
2022/10/10 12:03:56;;;;;;;3.72;2.40;;;15.00;63.70;;;;;;5070758;28;20409;-73
2022/10/10 12:06:38;;;;;;;3.60;2.97;;;15.00;63.20;;;;;;5048853;28;20026;-76
2022/10/10 12:09:29;;;;;;;4.53;2.75;;;15.00;64.90;;;;;;5071253;28;20447;-76
2022/10/10 12:11:57;;;;;;;3.83;2.78;;;15.10;65.00;;;;;;5043795;28;20014;-76
2022/10/10 12:14:26;;;;;;;3.40;2.92;;;15.10;63.40;;;;;;5049583;28;20072;-74
2022/10/10 12:16:52;;;;;;;5.60;3.63;;;15.10;63.50;;;;;;5044301;28;20029;-75
2022/10/10 12:19:24;;;;;;;4.07;2.67;;;15.10;62.90;;;;;;5046268;28;20110;-75
2022/10/10 12:21:59;;;;;;;8.75;4.35;;;15.10;63.20;;;;;;5064024;28;20013;-75
2022/10/10 12:24:31;;;;;;;4.65;4.05;;;15.00;61.10;;;;;;5048261;28;20394;-75
2022/10/10 12:26:57;;;;;;;9.10;5.80;;;14.90;62.60;;;;;;5043826;28;20100;-75
2022/10/10 12:29:48;;;;;;;8.20;3.70;;;15.00;64.00;;;;;;5052687;28;20741;-68
2022/10/10 12:32:13;;;;;;;5.75;3.55;;;15.00;63.60;;;;;;5041759;28;20029;-68
2022/10/10 12:34:48;;;;;;;5.63;3.78;;;15.00;62.50;;;;;;5073488;28;20036;-69
2022/10/10 12:37:28;;;;;;;4.57;2.78;;;14.90;63.50;;;;;;5062461;28;20510;-68
2022/10/10 12:40:05;;;;;;;3.20;2.88;;;15.00;62.30;;;;;;5046651;28;20041;-69
2022/10/10 12:42:37;;;;;;;3.38;2.80;;;15.00;62.20;;;;;;5056931;28;20081;-69
2022/10/10 12:45:22;;;;;;;2.92;2.60;;;15.00;62.70;;;;;;5074357;28;20053;-70
2022/10/10 12:47:47;;;;;;;4.72;3.47;;;15.00;62.70;;;;;;5062412;28;20021;-69
2022/10/10 12:50:37;;;;;;;5.47;3.45;;;15.00;62.90;;;;;;5068969;28;20040;-69
2022/10/10 12:53:15;;;;;;;7.70;3.70;;;15.00;64.00;;;;;;5075817;28;20028;-70
2022/10/10 12:55:59;;;;;;;3.72;3.40;;;15.00;65.20;;;;;;5075188;28;20097;-69
2022/10/10 12:58:39;;;;;;;4.32;3.10;;;15.10;64.50;;;;;;5075650;28;20413;-69
2022/10/10 13:01:27;;;;;;;5.20;3.38;;;15.10;65.70;;;;;;5074137;28;20056;-69
2022/10/10 13:03:54;;;;;;;3.88;3.08;;;15.10;65.50;;;;;;5074654;28;20044;-75
2022/10/10 13:06:40;;;;;;;4.75;2.90;;;15.10;65.50;;;;;;5075176;28;20115;-69